sensor_id;sensor_type;location;lat;lon;timestamp;pressure;altitude;pressure_sealevel;temperature;humidity
5812;BME280;2932;52.400;9.558;2023-12-04T00:00:13;101243.28;;;2.51;68.16
5812;BME280;2932;52.400;9.558;2023-12-04T00:02:40;101239.81;;;3.54;74.04
5812;BME280;2932;52.400;9.558;2023-12-04T00:05:06;101234.97;;;3.75;72.13
5812;BME280;2932;52.400;9.558;2023-12-04T00:07:31;101234.22;;;3.25;69.16
5812;BME280;2932;52.400;9.558;2023-12-04T00:09:56;101228.34;;;2.98;68.10
5812;BME280;2932;52.400;9.558;2023-12-04T00:12:22;101235.31;;;2.70;68.14
5812;BME280;2932;52.400;9.558;2023-12-04T00:14:47;101232.31;;;2.61;68.90
5812;BME280;2932;52.400;9.558;2023-12-04T00:17:12;101233.44;;;2.55;69.08
5812;BME280;2932;52.400;9.558;2023-12-04T00:19:38;101220.59;;;2.56;69.45
5812;BME280;2932;52.400;9.558;2023-12-04T00:22:03;101214.03;;;2.62;69.85
5812;BME280;2932;52.400;9.558;2023-12-04T00:24:28;101214.13;;;2.31;69.40
5812;BME280;2932;52.400;9.558;2023-12-04T00:26:54;101203.75;;;2.23;69.90
5812;BME280;2932;52.400;9.558;2023-12-04T00:29:19;101201.31;;;2.07;70.40
5812;BME280;2932;52.400;9.558;2023-12-04T00:31:44;101193.41;;;2.15;70.75
5812;BME280;2932;52.400;9.558;2023-12-04T00:34:10;101190.13;;;2.13;71.03
5812;BME280;2932;52.400;9.558;2023-12-04T00:36:37;101183.81;;;2.33;71.51
5812;BME280;2932;52.400;9.558;2023-12-04T00:39:02;101175.00;;;2.46;71.22
5812;BME280;2932;52.400;9.558;2023-12-04T00:41:29;101173.63;;;2.54;70.89
5812;BME280;2932;52.400;9.558;2023-12-04T00:43:54;101174.69;;;2.58;70.82
5812;BME280;2932;52.400;9.558;2023-12-04T00:46:19;101161.03;;;2.63;70.65
5812;BME280;2932;52.400;9.558;2023-12-04T00:48:45;101159.06;;;2.74;70.51
5812;BME280;2932;52.400;9.558;2023-12-04T00:51:11;101142.16;;;2.72;70.27
5812;BME280;2932;52.400;9.558;2023-12-04T00:53:37;101145.44;;;2.68;70.28
5812;BME280;2932;52.400;9.558;2023-12-04T00:56:02;101149.56;;;2.61;70.28
5812;BME280;2932;52.400;9.558;2023-12-04T00:58:28;101133.47;;;2.54;70.42
5812;BME280;2932;52.400;9.558;2023-12-04T01:00:53;101138.97;;;2.49;70.82
5812;BME280;2932;52.400;9.558;2023-12-04T01:03:18;101136.75;;;2.56;70.67
5812;BME280;2932;52.400;9.558;2023-12-04T01:05:44;101131.03;;;2.53;70.88
5812;BME280;2932;52.400;9.558;2023-12-04T01:08:09;101124.75;;;2.52;70.93
5812;BME280;2932;52.400;9.558;2023-12-04T01:10:34;101123.63;;;2.58;71.09
5812;BME280;2932;52.400;9.558;2023-12-04T01:13:00;101116.78;;;2.61;71.15
5812;BME280;2932;52.400;9.558;2023-12-04T01:15:25;101112.16;;;2.56;71.02
5812;BME280;2932;52.400;9.558;2023-12-04T01:17:51;101102.09;;;2.52;71.20
5812;BME280;2932;52.400;9.558;2023-12-04T01:20:16;101111.94;;;2.48;71.28
5812;BME280;2932;52.400;9.558;2023-12-04T01:22:41;101103.53;;;2.39;71.27
5812;BME280;2932;52.400;9.558;2023-12-04T01:25:07;101102.94;;;2.42;71.32
5812;BME280;2932;52.400;9.558;2023-12-04T01:27:33;101094.72;;;2.47;71.20
5812;BME280;2932;52.400;9.558;2023-12-04T01:30:01;101104.56;;;2.43;71.06
5812;BME280;2932;52.400;9.558;2023-12-04T01:32:26;101091.81;;;2.33;70.88
5812;BME280;2932;52.400;9.558;2023-12-04T01:34:51;101094.53;;;2.33;71.09
5812;BME280;2932;52.400;9.558;2023-12-04T01:37:17;101084.72;;;2.27;71.85
5812;BME280;2932;52.400;9.558;2023-12-04T01:39:42;101087.47;;;2.27;71.51
5812;BME280;2932;52.400;9.558;2023-12-04T01:42:07;101079.28;;;2.27;71.21
5812;BME280;2932;52.400;9.558;2023-12-04T01:44:32;101066.22;;;2.09;71.60
5812;BME280;2932;52.400;9.558;2023-12-04T01:46:58;101076.28;;;2.19;71.90
5812;BME280;2932;52.400;9.558;2023-12-04T01:49:23;101071.38;;;2.16;71.95
5812;BME280;2932;52.400;9.558;2023-12-04T01:51:49;101067.31;;;2.13;72.37
5812;BME280;2932;52.400;9.558;2023-12-04T01:54:15;101065.97;;;2.00;72.35
5812;BME280;2932;52.400;9.558;2023-12-04T01:56:41;101063.00;;;1.97;73.30
5812;BME280;2932;52.400;9.558;2023-12-04T01:59:07;101070.94;;;1.93;73.64
5812;BME280;2932;52.400;9.558;2023-12-04T02:01:33;101072.03;;;1.92;74.10
5812;BME280;2932;52.400;9.558;2023-12-04T02:04:01;101062.94;;;2.12;74.26
5812;BME280;2932;52.400;9.558;2023-12-04T02:06:27;101062.34;;;2.25;74.40
5812;BME280;2932;52.400;9.558;2023-12-04T02:08:52;101061.28;;;2.21;74.21
5812;BME280;2932;52.400;9.558;2023-12-04T02:11:18;101061.03;;;2.08;74.20
5812;BME280;2932;52.400;9.558;2023-12-04T02:13:43;101057.47;;;2.17;74.44
5812;BME280;2932;52.400;9.558;2023-12-04T02:16:10;101059.38;;;2.17;74.60
5812;BME280;2932;52.400;9.558;2023-12-04T02:18:37;101053.09;;;2.16;74.76
5812;BME280;2932;52.400;9.558;2023-12-04T02:21:03;101056.38;;;2.13;75.00
5812;BME280;2932;52.400;9.558;2023-12-04T02:23:29;101049.28;;;2.12;75.20
5812;BME280;2932;52.400;9.558;2023-12-04T02:26:03;101045.44;;;2.18;75.39
5812;BME280;2932;52.400;9.558;2023-12-04T02:28:32;101045.47;;;2.13;75.57
5812;BME280;2932;52.400;9.558;2023-12-04T02:30:59;101042.75;;;2.08;75.61
5812;BME280;2932;52.400;9.558;2023-12-04T02:33:26;101028.78;;;2.20;75.69
5812;BME280;2932;52.400;9.558;2023-12-04T02:35:53;101042.44;;;2.25;75.88
5812;BME280;2932;52.400;9.558;2023-12-04T02:38:20;101033.97;;;2.26;75.60
5812;BME280;2932;52.400;9.558;2023-12-04T02:40:46;101030.94;;;2.28;75.54
5812;BME280;2932;52.400;9.558;2023-12-04T02:43:11;101025.47;;;2.33;75.82
5812;BME280;2932;52.400;9.558;2023-12-04T02:45:37;101014.34;;;2.14;75.77
5812;BME280;2932;52.400;9.558;2023-12-04T02:48:02;101022.31;;;2.06;75.78
5812;BME280;2932;52.400;9.558;2023-12-04T02:50:28;101009.44;;;2.11;75.95
5812;BME280;2932;52.400;9.558;2023-12-04T02:52:53;101002.34;;;2.15;75.84
5812;BME280;2932;52.400;9.558;2023-12-04T02:55:19;101008.28;;;2.27;76.04
5812;BME280;2932;52.400;9.558;2023-12-04T02:57:44;101003.16;;;2.16;75.60
5812;BME280;2932;52.400;9.558;2023-12-04T03:00:10;101006.69;;;2.21;75.88
5812;BME280;2932;52.400;9.558;2023-12-04T03:02:35;101002.31;;;2.20;75.63
5812;BME280;2932;52.400;9.558;2023-12-04T03:05:01;101004.75;;;2.27;75.83
5812;BME280;2932;52.400;9.558;2023-12-04T03:07:26;100988.66;;;2.25;75.57
5812;BME280;2932;52.400;9.558;2023-12-04T03:09:52;100983.47;;;2.24;75.34
5812;BME280;2932;52.400;9.558;2023-12-04T03:12:17;100984.31;;;2.19;75.27
5812;BME280;2932;52.400;9.558;2023-12-04T03:14:43;100986.44;;;2.27;75.25
5812;BME280;2932;52.400;9.558;2023-12-04T03:17:08;100985.41;;;2.18;75.08
5812;BME280;2932;52.400;9.558;2023-12-04T03:19:33;100986.47;;;2.22;75.17
5812;BME280;2932;52.400;9.558;2023-12-04T03:21:59;100982.78;;;2.42;75.21
5812;BME280;2932;52.400;9.558;2023-12-04T03:24:25;100970.59;;;2.34;75.25
5812;BME280;2932;52.400;9.558;2023-12-04T03:26:50;100970.03;;;2.38;75.29
5812;BME280;2932;52.400;9.558;2023-12-04T03:29:15;100968.94;;;2.33;75.35
5812;BME280;2932;52.400;9.558;2023-12-04T03:31:41;100966.13;;;2.44;75.42
5812;BME280;2932;52.400;9.558;2023-12-04T03:34:06;100965.13;;;2.34;75.46
5812;BME280;2932;52.400;9.558;2023-12-04T03:36:31;100960.22;;;2.31;75.57
5812;BME280;2932;52.400;9.558;2023-12-04T03:38:57;100962.41;;;2.29;75.56
5812;BME280;2932;52.400;9.558;2023-12-04T03:41:22;100955.59;;;2.27;75.96
5812;BME280;2932;52.400;9.558;2023-12-04T03:43:48;100953.97;;;2.26;75.77
5812;BME280;2932;52.400;9.558;2023-12-04T03:46:13;100955.06;;;2.25;75.92
5812;BME280;2932;52.400;9.558;2023-12-04T03:48:38;100941.69;;;2.28;75.61
5812;BME280;2932;52.400;9.558;2023-12-04T03:51:05;100930.38;;;2.40;75.83
5812;BME280;2932;52.400;9.558;2023-12-04T03:53:30;100921.88;;;2.47;75.57
5812;BME280;2932;52.400;9.558;2023-12-04T03:55:58;100918.56;;;2.50;75.35
5812;BME280;2932;52.400;9.558;2023-12-04T03:58:23;100915.03;;;2.49;75.12
5812;BME280;2932;52.400;9.558;2023-12-04T04:00:48;100912.06;;;2.46;74.85
5812;BME280;2932;52.400;9.558;2023-12-04T04:03:14;100901.94;;;2.46;74.60
5812;BME280;2932;52.400;9.558;2023-12-04T04:05:40;100904.16;;;2.44;74.44
5812;BME280;2932;52.400;9.558;2023-12-04T04:08:05;100903.31;;;2.44;74.06
5812;BME280;2932;52.400;9.558;2023-12-04T04:10:32;100900.31;;;2.45;73.55
5812;BME280;2932;52.400;9.558;2023-12-04T04:12:58;100895.91;;;2.49;73.37
5812;BME280;2932;52.400;9.558;2023-12-04T04:15:23;100901.34;;;2.54;73.07
5812;BME280;2932;52.400;9.558;2023-12-04T04:17:48;100896.31;;;2.66;72.72
5812;BME280;2932;52.400;9.558;2023-12-04T04:20:14;100894.50;;;2.57;72.22
5812;BME280;2932;52.400;9.558;2023-12-04T04:22:39;100896.38;;;2.61;71.85
5812;BME280;2932;52.400;9.558;2023-12-04T04:25:09;100899.63;;;2.63;71.55
5812;BME280;2932;52.400;9.558;2023-12-04T04:27:35;100893.81;;;2.75;71.16
5812;BME280;2932;52.400;9.558;2023-12-04T04:30:01;100891.06;;;2.75;70.76
5812;BME280;2932;52.400;9.558;2023-12-04T04:32:26;100896.53;;;2.75;70.63
5812;BME280;2932;52.400;9.558;2023-12-04T04:34:52;100897.72;;;2.93;70.59
5812;BME280;2932;52.400;9.558;2023-12-04T04:37:17;100887.41;;;2.85;70.06
5812;BME280;2932;52.400;9.558;2023-12-04T04:39:43;100887.00;;;2.73;69.90
5812;BME280;2932;52.400;9.558;2023-12-04T04:42:08;100890.63;;;2.63;70.18
5812;BME280;2932;52.400;9.558;2023-12-04T04:44:33;100883.84;;;2.55;70.10
5812;BME280;2932;52.400;9.558;2023-12-04T04:46:59;100884.81;;;2.70;69.88
5812;BME280;2932;52.400;9.558;2023-12-04T04:49:24;100887.94;;;2.58;69.83
5812;BME280;2932;52.400;9.558;2023-12-04T04:51:50;100876.03;;;2.44;69.90
5812;BME280;2932;52.400;9.558;2023-12-04T04:54:15;100876.56;;;2.46;70.15
5812;BME280;2932;52.400;9.558;2023-12-04T04:56:40;100872.88;;;2.31;70.32
5812;BME280;2932;52.400;9.558;2023-12-04T04:59:06;100864.75;;;2.21;70.40
5812;BME280;2932;52.400;9.558;2023-12-04T05:01:31;100867.91;;;2.39;70.70
5812;BME280;2932;52.400;9.558;2023-12-04T05:03:56;100855.91;;;2.34;70.77
5812;BME280;2932;52.400;9.558;2023-12-04T05:06:22;100844.03;;;2.15;70.92
5812;BME280;2932;52.400;9.558;2023-12-04T05:08:48;100843.50;;;2.13;71.45
5812;BME280;2932;52.400;9.558;2023-12-04T05:11:16;100843.50;;;2.13;71.51
5812;BME280;2932;52.400;9.558;2023-12-04T05:13:42;100835.66;;;2.07;70.93
5812;BME280;2932;52.400;9.558;2023-12-04T05:16:08;100835.34;;;2.08;71.07
5812;BME280;2932;52.400;9.558;2023-12-04T05:18:33;100842.69;;;2.13;70.64
5812;BME280;2932;52.400;9.558;2023-12-04T05:20:58;100840.47;;;2.20;70.49
5812;BME280;2932;52.400;9.558;2023-12-04T05:23:24;100849.16;;;2.27;70.22
5812;BME280;2932;52.400;9.558;2023-12-04T05:25:49;100848.59;;;2.30;69.84
5812;BME280;2932;52.400;9.558;2023-12-04T05:28:14;100840.88;;;2.37;69.35
5812;BME280;2932;52.400;9.558;2023-12-04T05:30:40;100851.16;;;2.45;69.16
5812;BME280;2932;52.400;9.558;2023-12-04T05:33:05;100840.59;;;2.39;68.61
5812;BME280;2932;52.400;9.558;2023-12-04T05:35:30;100835.34;;;2.42;68.30
5812;BME280;2932;52.400;9.558;2023-12-04T05:37:59;100830.25;;;2.36;68.13
5812;BME280;2932;52.400;9.558;2023-12-04T05:40:24;100827.41;;;2.46;68.15
5812;BME280;2932;52.400;9.558;2023-12-04T05:42:50;100826.31;;;2.47;68.12
5812;BME280;2932;52.400;9.558;2023-12-04T05:45:15;100814.31;;;2.43;67.98
5812;BME280;2932;52.400;9.558;2023-12-04T05:47:40;100830.13;;;2.46;68.04
5812;BME280;2932;52.400;9.558;2023-12-04T05:50:06;100813.75;;;2.46;68.20
5812;BME280;2932;52.400;9.558;2023-12-04T05:52:32;100813.22;;;2.44;68.22
5812;BME280;2932;52.400;9.558;2023-12-04T05:54:57;100804.00;;;2.40;68.35
5812;BME280;2932;52.400;9.558;2023-12-04T05:57:23;100806.94;;;2.43;68.24
5812;BME280;2932;52.400;9.558;2023-12-04T05:59:48;100809.09;;;2.46;68.09
5812;BME280;2932;52.400;9.558;2023-12-04T06:02:13;100807.16;;;2.52;67.98
5812;BME280;2932;52.400;9.558;2023-12-04T06:04:40;100804.97;;;2.49;67.74
5812;BME280;2932;52.400;9.558;2023-12-04T06:07:05;100800.88;;;2.51;67.76
5812;BME280;2932;52.400;9.558;2023-12-04T06:09:32;100803.50;;;2.61;67.37
5812;BME280;2932;52.400;9.558;2023-12-04T06:11:57;100793.41;;;2.62;67.20
5812;BME280;2932;52.400;9.558;2023-12-04T06:14:22;100793.97;;;2.59;67.38
5812;BME280;2932;52.400;9.558;2023-12-04T06:16:48;100790.31;;;2.68;67.17
5812;BME280;2932;52.400;9.558;2023-12-04T06:19:13;100780.59;;;2.81;67.46
5812;BME280;2932;52.400;9.558;2023-12-04T06:21:39;100786.16;;;2.76;66.98
5812;BME280;2932;52.400;9.558;2023-12-04T06:24:05;100780.69;;;2.76;67.36
5812;BME280;2932;52.400;9.558;2023-12-04T06:26:31;100776.47;;;2.84;67.48
5812;BME280;2932;52.400;9.558;2023-12-04T06:28:57;100776.78;;;2.82;67.83
5812;BME280;2932;52.400;9.558;2023-12-04T06:31:23;100777.97;;;2.76;67.98
5812;BME280;2932;52.400;9.558;2023-12-04T06:33:48;100787.69;;;2.82;68.27
5812;BME280;2932;52.400;9.558;2023-12-04T06:36:14;100786.00;;;2.86;68.43
5812;BME280;2932;52.400;9.558;2023-12-04T06:38:40;100787.25;;;2.99;68.10
5812;BME280;2932;52.400;9.558;2023-12-04T06:41:07;100781.25;;;2.97;67.58
5812;BME280;2932;52.400;9.558;2023-12-04T06:43:32;100783.19;;;2.96;67.42
5812;BME280;2932;52.400;9.558;2023-12-04T06:45:58;100780.22;;;2.93;67.21
5812;BME280;2932;52.400;9.558;2023-12-04T06:48:24;100774.44;;;2.94;67.06
5812;BME280;2932;52.400;9.558;2023-12-04T06:50:49;100777.72;;;2.96;66.88
5812;BME280;2932;52.400;9.558;2023-12-04T06:53:15;100777.44;;;2.74;66.77
5812;BME280;2932;52.400;9.558;2023-12-04T06:55:40;100772.84;;;2.70;66.93
5812;BME280;2932;52.400;9.558;2023-12-04T06:58:05;100778.97;;;2.80;67.22
5812;BME280;2932;52.400;9.558;2023-12-04T07:00:31;100771.09;;;2.79;67.33
5812;BME280;2932;52.400;9.558;2023-12-04T07:02:56;100775.00;;;2.73;67.35
5812;BME280;2932;52.400;9.558;2023-12-04T07:05:21;100774.69;;;2.74;67.36
5812;BME280;2932;52.400;9.558;2023-12-04T07:07:47;100778.53;;;2.73;67.05
5812;BME280;2932;52.400;9.558;2023-12-04T07:10:12;100774.13;;;2.77;67.09
5812;BME280;2932;52.400;9.558;2023-12-04T07:12:40;100776.91;;;2.72;66.96
5812;BME280;2932;52.400;9.558;2023-12-04T07:15:06;100776.63;;;2.74;67.24
5812;BME280;2932;52.400;9.558;2023-12-04T07:17:32;100784.00;;;2.73;67.21
5812;BME280;2932;52.400;9.558;2023-12-04T07:19:57;100785.63;;;2.74;67.14
5812;BME280;2932;52.400;9.558;2023-12-04T07:22:23;100783.56;;;2.85;66.71
5812;BME280;2932;52.400;9.558;2023-12-04T07:24:48;100781.59;;;2.90;66.79
5812;BME280;2932;52.400;9.558;2023-12-04T07:27:13;100786.19;;;2.95;67.09
5812;BME280;2932;52.400;9.558;2023-12-04T07:29:39;100776.84;;;3.01;66.92
5812;BME280;2932;52.400;9.558;2023-12-04T07:32:05;100788.06;;;2.99;66.81
5812;BME280;2932;52.400;9.558;2023-12-04T07:34:30;100780.03;;;2.84;66.54
5812;BME280;2932;52.400;9.558;2023-12-04T07:36:56;100779.69;;;2.91;66.17
5812;BME280;2932;52.400;9.558;2023-12-04T07:39:21;100790.09;;;2.89;66.37
5812;BME280;2932;52.400;9.558;2023-12-04T07:41:46;100786.88;;;2.82;66.62
5812;BME280;2932;52.400;9.558;2023-12-04T07:44:12;100778.53;;;2.73;66.75
5812;BME280;2932;52.400;9.558;2023-12-04T07:46:37;100776.03;;;2.77;66.55
5812;BME280;2932;52.400;9.558;2023-12-04T07:49:02;100775.09;;;2.86;66.25
5812;BME280;2932;52.400;9.558;2023-12-04T07:51:28;100773.47;;;3.09;66.34
5812;BME280;2932;52.400;9.558;2023-12-04T07:53:54;100766.94;;;3.05;66.33
5812;BME280;2932;52.400;9.558;2023-12-04T07:56:19;100769.09;;;3.08;66.29
5812;BME280;2932;52.400;9.558;2023-12-04T07:58:45;100758.91;;;3.14;65.80
5812;BME280;2932;52.400;9.558;2023-12-04T08:01:10;100757.38;;;3.26;65.72
5812;BME280;2932;52.400;9.558;2023-12-04T08:03:35;100754.03;;;3.29;65.63
5812;BME280;2932;52.400;9.558;2023-12-04T08:06:01;100767.72;;;3.29;65.68
5812;BME280;2932;52.400;9.558;2023-12-04T08:08:26;100755.38;;;3.32;65.97
5812;BME280;2932;52.400;9.558;2023-12-04T08:10:51;100754.78;;;3.35;65.97
5812;BME280;2932;52.400;9.558;2023-12-04T08:13:17;100763.88;;;3.30;66.23
5812;BME280;2932;52.400;9.558;2023-12-04T08:15:43;100758.47;;;3.25;66.36
5812;BME280;2932;52.400;9.558;2023-12-04T08:18:09;100761.66;;;3.14;66.50
5812;BME280;2932;52.400;9.558;2023-12-04T08:20:34;100761.25;;;3.01;66.97
5812;BME280;2932;52.400;9.558;2023-12-04T08:22:59;100757.06;;;2.85;67.29
5812;BME280;2932;52.400;9.558;2023-12-04T08:25:25;100755.38;;;2.89;67.70
5812;BME280;2932;52.400;9.558;2023-12-04T08:27:50;100757.72;;;2.77;67.73
5812;BME280;2932;52.400;9.558;2023-12-04T08:30:16;100746.84;;;2.72;67.83
5812;BME280;2932;52.400;9.558;2023-12-04T08:32:41;100746.50;;;2.79;67.99
5812;BME280;2932;52.400;9.558;2023-12-04T08:35:07;100746.81;;;2.77;68.25
5812;BME280;2932;52.400;9.558;2023-12-04T08:37:32;100745.81;;;2.68;68.48
5812;BME280;2932;52.400;9.558;2023-12-04T08:39:57;100746.38;;;2.65;68.81
5812;BME280;2932;52.400;9.558;2023-12-04T08:42:23;100742.50;;;2.71;68.89
5812;BME280;2932;52.400;9.558;2023-12-04T08:44:48;100757.84;;;2.67;68.70
5812;BME280;2932;52.400;9.558;2023-12-04T08:47:13;100739.41;;;2.78;68.82
5812;BME280;2932;52.400;9.558;2023-12-04T08:49:40;100732.97;;;2.68;68.70
5812;BME280;2932;52.400;9.558;2023-12-04T08:52:06;100746.09;;;2.66;68.87
5812;BME280;2932;52.400;9.558;2023-12-04T08:54:32;100730.84;;;2.84;68.82
5812;BME280;2932;52.400;9.558;2023-12-04T08:56:57;100736.91;;;2.81;68.36
5812;BME280;2932;52.400;9.558;2023-12-04T08:59:23;100739.81;;;2.90;67.94
5812;BME280;2932;52.400;9.558;2023-12-04T09:01:48;100735.38;;;2.94;67.80
5812;BME280;2932;52.400;9.558;2023-12-04T09:04:13;100733.41;;;2.99;67.85
5812;BME280;2932;52.400;9.558;2023-12-04T09:06:39;100726.41;;;3.12;67.19
5812;BME280;2932;52.400;9.558;2023-12-04T09:09:04;100723.97;;;3.11;66.78
5812;BME280;2932;52.400;9.558;2023-12-04T09:11:29;100728.03;;;3.13;66.56
5812;BME280;2932;52.400;9.558;2023-12-04T09:13:55;100726.69;;;3.11;66.25
5812;BME280;2932;52.400;9.558;2023-12-04T09:16:20;100724.13;;;3.19;65.69
5812;BME280;2932;52.400;9.558;2023-12-04T09:18:45;100724.25;;;3.28;65.58
5812;BME280;2932;52.400;9.558;2023-12-04T09:21:12;100723.00;;;3.20;65.14
5812;BME280;2932;52.400;9.558;2023-12-04T09:23:37;100711.34;;;3.15;65.24
5812;BME280;2932;52.400;9.558;2023-12-04T09:26:02;100720.78;;;3.04;64.80
5812;BME280;2932;52.400;9.558;2023-12-04T09:28:28;100720.25;;;3.01;64.95
5812;BME280;2932;52.400;9.558;2023-12-04T09:30:53;100716.78;;;2.96;64.92
5812;BME280;2932;52.400;9.558;2023-12-04T09:33:18;100715.31;;;3.04;65.16
5812;BME280;2932;52.400;9.558;2023-12-04T09:35:44;100717.09;;;3.13;64.75
5812;BME280;2932;52.400;9.558;2023-12-04T09:38:10;100719.25;;;3.16;64.60
5812;BME280;2932;52.400;9.558;2023-12-04T09:40:35;100717.53;;;3.20;64.54
5812;BME280;2932;52.400;9.558;2023-12-04T09:43:01;100713.84;;;3.11;64.70
5812;BME280;2932;52.400;9.558;2023-12-04T09:45:28;100722.63;;;3.08;64.72
5812;BME280;2932;52.400;9.558;2023-12-04T09:47:54;100712.69;;;3.17;64.40
5812;BME280;2932;52.400;9.558;2023-12-04T09:50:20;100715.31;;;3.04;64.30
5812;BME280;2932;52.400;9.558;2023-12-04T09:52:51;100698.63;;;3.24;64.58
5812;BME280;2932;52.400;9.558;2023-12-04T09:55:16;100700.94;;;3.17;64.19
5812;BME280;2932;52.400;9.558;2023-12-04T09:57:43;100703.66;;;3.35;64.09
5812;BME280;2932;52.400;9.558;2023-12-04T10:00:12;100698.34;;;3.44;64.12
5812;BME280;2932;52.400;9.558;2023-12-04T10:02:38;100694.72;;;3.49;63.68
5812;BME280;2932;52.400;9.558;2023-12-04T10:05:04;100696.03;;;3.32;63.61
5812;BME280;2932;52.400;9.558;2023-12-04T10:07:31;100686.22;;;3.13;63.49
5812;BME280;2932;52.400;9.558;2023-12-04T10:09:56;100688.88;;;3.37;63.57
5812;BME280;2932;52.400;9.558;2023-12-04T10:12:21;100669.66;;;3.23;63.76
5812;BME280;2932;52.400;9.558;2023-12-04T10:15:02;100664.81;;;3.20;63.93
5812;BME280;2932;52.400;9.558;2023-12-04T10:17:33;100671.06;;;3.20;63.44
5812;BME280;2932;52.400;9.558;2023-12-04T10:20:15;100662.94;;;3.15;63.71
5812;BME280;2932;52.400;9.558;2023-12-04T10:23:01;100654.59;;;3.07;63.77
5812;BME280;2932;52.400;9.558;2023-12-04T10:25:28;100654.50;;;2.93;63.76
5812;BME280;2932;52.400;9.558;2023-12-04T10:27:55;100657.34;;;3.07;63.93
5812;BME280;2932;52.400;9.558;2023-12-04T10:30:31;100657.31;;;2.88;63.67
5812;BME280;2932;52.400;9.558;2023-12-04T10:32:58;100641.53;;;3.04;63.90
5812;BME280;2932;52.400;9.558;2023-12-04T10:35:28;100640.34;;;3.10;63.94
5812;BME280;2932;52.400;9.558;2023-12-04T10:37:55;100637.38;;;3.06;63.71
5812;BME280;2932;52.400;9.558;2023-12-04T10:40:25;100641.75;;;3.07;63.88
5812;BME280;2932;52.400;9.558;2023-12-04T10:42:51;100641.81;;;3.02;63.85
5812;BME280;2932;52.400;9.558;2023-12-04T10:45:17;100635.31;;;3.17;63.69
5812;BME280;2932;52.400;9.558;2023-12-04T10:47:43;100633.00;;;3.24;63.25
5812;BME280;2932;52.400;9.558;2023-12-04T10:50:09;100637.88;;;3.27;62.87
5812;BME280;2932;52.400;9.558;2023-12-04T10:52:36;100622.00;;;3.29;63.01
5812;BME280;2932;52.400;9.558;2023-12-04T10:55:01;100627.13;;;3.17;63.10
5812;BME280;2932;52.400;9.558;2023-12-04T10:57:30;100621.84;;;3.20;63.20
5812;BME280;2932;52.400;9.558;2023-12-04T10:59:59;100618.63;;;3.18;63.24
5812;BME280;2932;52.400;9.558;2023-12-04T11:02:29;100619.34;;;3.24;63.25
5812;BME280;2932;52.400;9.558;2023-12-04T11:05:04;100610.03;;;3.25;62.95
5812;BME280;2932;52.400;9.558;2023-12-04T11:07:33;100619.00;;;3.12;62.72
5812;BME280;2932;52.400;9.558;2023-12-04T11:10:00;100608.31;;;3.29;62.89
5812;BME280;2932;52.400;9.558;2023-12-04T11:12:29;100605.22;;;3.35;62.79
5812;BME280;2932;52.400;9.558;2023-12-04T11:14:59;100601.81;;;3.25;62.59
5812;BME280;2932;52.400;9.558;2023-12-04T11:17:28;100599.81;;;3.30;62.77
5812;BME280;2932;52.400;9.558;2023-12-04T11:19:59;100595.31;;;3.21;62.79
5812;BME280;2932;52.400;9.558;2023-12-04T11:22:40;100590.50;;;3.31;62.76
5812;BME280;2932;52.400;9.558;2023-12-04T11:25:06;100585.78;;;3.37;62.64
5812;BME280;2932;52.400;9.558;2023-12-04T11:27:33;100582.31;;;3.31;62.45
5812;BME280;2932;52.400;9.558;2023-12-04T11:30:00;100580.06;;;3.20;62.58
5812;BME280;2932;52.400;9.558;2023-12-04T11:32:28;100582.28;;;3.18;62.75
5812;BME280;2932;52.400;9.558;2023-12-04T11:34:59;100587.25;;;3.29;62.60
5812;BME280;2932;52.400;9.558;2023-12-04T11:37:26;100577.13;;;3.30;62.28
5812;BME280;2932;52.400;9.558;2023-12-04T11:39:51;100579.91;;;3.11;62.38
5812;BME280;2932;52.400;9.558;2023-12-04T11:42:22;100572.22;;;3.13;62.56
5812;BME280;2932;52.400;9.558;2023-12-04T11:44:49;100571.16;;;3.28;62.84
5812;BME280;2932;52.400;9.558;2023-12-04T11:47:15;100567.59;;;3.27;62.42
5812;BME280;2932;52.400;9.558;2023-12-04T11:49:40;100561.16;;;3.37;62.56
5812;BME280;2932;52.400;9.558;2023-12-04T11:52:06;100562.66;;;3.29;62.28
5812;BME280;2932;52.400;9.558;2023-12-04T11:57:23;100556.25;;;3.53;62.23
5812;BME280;2932;52.400;9.558;2023-12-04T11:59:51;100552.50;;;3.62;61.76
5812;BME280;2932;52.400;9.558;2023-12-04T12:02:16;100542.88;;;3.51;61.38
5812;BME280;2932;52.400;9.558;2023-12-04T12:04:42;100533.84;;;3.64;61.40
5812;BME280;2932;52.400;9.558;2023-12-04T12:07:08;100538.22;;;3.52;61.29
5812;BME280;2932;52.400;9.558;2023-12-04T12:09:33;100531.44;;;3.63;61.02
5812;BME280;2932;52.400;9.558;2023-12-04T12:12:01;100529.13;;;3.70;61.11
5812;BME280;2932;52.400;9.558;2023-12-04T12:14:28;100527.28;;;3.65;60.70
5812;BME280;2932;52.400;9.558;2023-12-04T12:16:59;100525.25;;;3.71;60.28
5812;BME280;2932;52.400;9.558;2023-12-04T12:19:25;100514.84;;;3.59;60.61
5812;BME280;2932;52.400;9.558;2023-12-04T12:21:50;100514.38;;;3.39;60.54
5812;BME280;2932;52.400;9.558;2023-12-04T12:24:17;100502.44;;;3.48;60.70
5812;BME280;2932;52.400;9.558;2023-12-04T12:26:43;100512.19;;;3.54;61.31
5812;BME280;2932;52.400;9.558;2023-12-04T12:29:11;100501.25;;;3.54;61.21
5812;BME280;2932;52.400;9.558;2023-12-04T12:31:36;100504.88;;;3.50;61.08
5812;BME280;2932;52.400;9.558;2023-12-04T12:34:01;100502.00;;;3.27;61.21
5812;BME280;2932;52.400;9.558;2023-12-04T12:36:28;100487.94;;;3.34;61.30
5812;BME280;2932;52.400;9.558;2023-12-04T12:38:54;100492.91;;;3.32;61.11
5812;BME280;2932;52.400;9.558;2023-12-04T12:41:19;100499.59;;;3.40;60.90
5812;BME280;2932;52.400;9.558;2023-12-04T12:43:45;100478.13;;;3.47;60.83
5812;BME280;2932;52.400;9.558;2023-12-04T12:46:12;100484.59;;;3.37;61.27
5812;BME280;2932;52.400;9.558;2023-12-04T12:48:37;100465.16;;;3.39;61.29
5812;BME280;2932;52.400;9.558;2023-12-04T12:51:03;100470.13;;;3.37;61.38
5812;BME280;2932;52.400;9.558;2023-12-04T12:53:32;100460.31;;;3.49;61.55
5812;BME280;2932;52.400;9.558;2023-12-04T12:55:59;100467.28;;;3.42;61.56
5812;BME280;2932;52.400;9.558;2023-12-04T12:58:25;100461.78;;;3.28;61.69
5812;BME280;2932;52.400;9.558;2023-12-04T13:00:50;100454.63;;;3.32;62.18
5812;BME280;2932;52.400;9.558;2023-12-04T13:03:16;100461.94;;;3.50;61.93
5812;BME280;2932;52.400;9.558;2023-12-04T13:05:42;100453.34;;;3.57;61.81
5812;BME280;2932;52.400;9.558;2023-12-04T13:08:07;100450.97;;;3.64;61.81
5812;BME280;2932;52.400;9.558;2023-12-04T13:10:33;100452.09;;;3.63;61.89
5812;BME280;2932;52.400;9.558;2023-12-04T13:12:58;100454.44;;;3.69;61.49
5812;BME280;2932;52.400;9.558;2023-12-04T13:15:25;100445.63;;;3.73;61.05
5812;BME280;2932;52.400;9.558;2023-12-04T13:17:51;100443.59;;;3.78;60.94